Terminal Aerodrome Forecast
Issued by NWS Mt. Holly, NJ

Home | Current Version | Previous Version | Text Only | Print | Product List | Glossary On
Versions: 1 2 3 4 5 6 7 8 9 10 11 12 13
000
FTUS41 KPHI 280500
TAFABE
TAF
KABE 280520Z 2806/2906 VRB03KT P6SM BKN120
     FM281000 VRB02KT P6SM -SHRA SCT025 OVC050
     FM281500 30005KT 6SM -SHRA BKN025
     FM281900 31007KT P6SM SCT025 OVC120=

USA.gov is the U.S. government's official web portal to all federal, state and local government web resources and services.